sensor_id;sensor_type;location;lat;lon;timestamp;P1;durP1;ratioP1;P2;durP2;ratioP2
23642;SDS011;11998;55.788;37.572;2022-12-07T00:00:16;6.25;;;2.70;;
23642;SDS011;11998;55.788;37.572;2022-12-07T00:01:18;4.40;;;2.67;;
23642;SDS011;11998;55.788;37.572;2022-12-07T00:02:19;5.45;;;3.13;;
23642;SDS011;11998;55.788;37.572;2022-12-07T00:03:19;8.70;;;3.10;;
23642;SDS011;11998;55.788;37.572;2022-12-07T00:04:20;4.60;;;2.33;;
23642;SDS011;11998;55.788;37.572;2022-12-07T00:05:20;5.47;;;3.20;;
23642;SDS011;11998;55.788;37.572;2022-12-07T00:06:21;5.13;;;2.73;;
23642;SDS011;11998;55.788;37.572;2022-12-07T00:07:21;8.03;;;3.27;;
23642;SDS011;11998;55.788;37.572;2022-12-07T00:08:22;8.20;;;3.33;;
23642;SDS011;11998;55.788;37.572;2022-12-07T00:09:22;9.67;;;3.93;;
23642;SDS011;11998;55.788;37.572;2022-12-07T00:10:23;7.80;;;3.00;;
23642;SDS011;11998;55.788;37.572;2022-12-07T00:11:24;7.23;;;3.50;;
23642;SDS011;11998;55.788;37.572;2022-12-07T00:12:24;12.23;;;4.67;;
23642;SDS011;11998;55.788;37.572;2022-12-07T00:13:25;9.23;;;4.17;;
23642;SDS011;11998;55.788;37.572;2022-12-07T00:14:25;9.80;;;3.80;;
23642;SDS011;11998;55.788;37.572;2022-12-07T00:15:26;5.77;;;2.97;;
23642;SDS011;11998;55.788;37.572;2022-12-07T00:16:27;4.90;;;2.70;;
23642;SDS011;11998;55.788;37.572;2022-12-07T00:17:29;5.95;;;3.30;;
23642;SDS011;11998;55.788;37.572;2022-12-07T00:18:30;5.20;;;2.90;;
23642;SDS011;11998;55.788;37.572;2022-12-07T00:19:30;5.50;;;3.20;;
23642;SDS011;11998;55.788;37.572;2022-12-07T00:20:31;7.07;;;3.13;;
23642;SDS011;11998;55.788;37.572;2022-12-07T00:21:34;4.57;;;2.83;;
23642;SDS011;11998;55.788;37.572;2022-12-07T00:22:35;7.55;;;2.78;;
23642;SDS011;11998;55.788;37.572;2022-12-07T00:23:36;6.80;;;2.90;;
23642;SDS011;11998;55.788;37.572;2022-12-07T00:24:37;6.70;;;3.20;;
23642;SDS011;11998;55.788;37.572;2022-12-07T00:25:37;3.87;;;2.37;;
23642;SDS011;11998;55.788;37.572;2022-12-07T00:26:39;5.07;;;2.93;;
23642;SDS011;11998;55.788;37.572;2022-12-07T00:27:40;5.47;;;3.10;;
23642;SDS011;11998;55.788;37.572;2022-12-07T00:28:41;3.80;;;2.57;;
23642;SDS011;11998;55.788;37.572;2022-12-07T00:29:44;6.68;;;2.60;;
23642;SDS011;11998;55.788;37.572;2022-12-07T00:30:45;4.70;;;3.00;;
23642;SDS011;11998;55.788;37.572;2022-12-07T00:31:45;8.40;;;3.10;;
23642;SDS011;11998;55.788;37.572;2022-12-07T00:32:46;5.28;;;2.95;;
23642;SDS011;11998;55.788;37.572;2022-12-07T00:33:47;5.73;;;3.50;;
23642;SDS011;11998;55.788;37.572;2022-12-07T00:34:47;4.80;;;2.50;;
23642;SDS011;11998;55.788;37.572;2022-12-07T00:35:54;5.80;;;2.40;;
23642;SDS011;11998;55.788;37.572;2022-12-07T00:36:55;5.43;;;2.75;;
23642;SDS011;11998;55.788;37.572;2022-12-07T00:37:56;4.23;;;2.90;;
23642;SDS011;11998;55.788;37.572;2022-12-07T00:38:59;6.23;;;2.97;;
23642;SDS011;11998;55.788;37.572;2022-12-07T00:40:00;5.25;;;2.90;;
23642;SDS011;11998;55.788;37.572;2022-12-07T00:41:02;5.00;;;2.83;;
23642;SDS011;11998;55.788;37.572;2022-12-07T00:42:04;6.63;;;3.13;;
23642;SDS011;11998;55.788;37.572;2022-12-07T00:43:04;8.67;;;2.70;;
23642;SDS011;11998;55.788;37.572;2022-12-07T00:44:05;4.50;;;2.60;;
23642;SDS011;11998;55.788;37.572;2022-12-07T00:45:06;5.90;;;2.53;;
23642;SDS011;11998;55.788;37.572;2022-12-07T00:46:07;6.55;;;3.10;;
23642;SDS011;11998;55.788;37.572;2022-12-07T00:47:08;5.97;;;2.72;;
23642;SDS011;11998;55.788;37.572;2022-12-07T00:48:09;4.10;;;2.50;;
23642;SDS011;11998;55.788;37.572;2022-12-07T00:49:09;7.63;;;3.00;;
23642;SDS011;11998;55.788;37.572;2022-12-07T00:50:10;6.07;;;2.73;;
23642;SDS011;11998;55.788;37.572;2022-12-07T00:51:14;6.57;;;2.83;;
23642;SDS011;11998;55.788;37.572;2022-12-07T00:52:16;5.05;;;2.72;;
23642;SDS011;11998;55.788;37.572;2022-12-07T00:53:16;5.63;;;2.40;;
23642;SDS011;11998;55.788;37.572;2022-12-07T00:54:17;3.40;;;2.22;;
23642;SDS011;11998;55.788;37.572;2022-12-07T00:55:18;6.90;;;3.03;;
23642;SDS011;11998;55.788;37.572;2022-12-07T00:56:19;8.97;;;2.77;;
23642;SDS011;11998;55.788;37.572;2022-12-07T00:57:24;4.75;;;2.55;;
23642;SDS011;11998;55.788;37.572;2022-12-07T00:58:25;3.83;;;2.73;;
23642;SDS011;11998;55.788;37.572;2022-12-07T00:59:25;4.37;;;2.67;;
23642;SDS011;11998;55.788;37.572;2022-12-07T01:00:26;3.80;;;2.37;;
23642;SDS011;11998;55.788;37.572;2022-12-07T01:01:27;7.13;;;2.80;;
23642;SDS011;11998;55.788;37.572;2022-12-07T01:02:29;6.80;;;2.65;;
23642;SDS011;11998;55.788;37.572;2022-12-07T01:03:31;6.03;;;3.17;;
23642;SDS011;11998;55.788;37.572;2022-12-07T01:04:33;5.17;;;2.60;;
23642;SDS011;11998;55.788;37.572;2022-12-07T01:05:34;4.15;;;2.42;;
23642;SDS011;11998;55.788;37.572;2022-12-07T01:06:35;4.77;;;2.57;;
23642;SDS011;11998;55.788;37.572;2022-12-07T01:07:37;7.17;;;2.90;;
23642;SDS011;11998;55.788;37.572;2022-12-07T01:08:37;5.10;;;2.72;;
23642;SDS011;11998;55.788;37.572;2022-12-07T01:09:38;6.03;;;2.50;;
23642;SDS011;11998;55.788;37.572;2022-12-07T01:10:38;5.50;;;2.53;;
23642;SDS011;11998;55.788;37.572;2022-12-07T01:11:39;5.03;;;3.10;;
23642;SDS011;11998;55.788;37.572;2022-12-07T01:12:40;6.30;;;2.83;;
23642;SDS011;11998;55.788;37.572;2022-12-07T01:13:41;3.72;;;2.70;;
23642;SDS011;11998;55.788;37.572;2022-12-07T01:14:42;4.85;;;2.90;;
23642;SDS011;11998;55.788;37.572;2022-12-07T01:15:43;5.37;;;2.80;;
23642;SDS011;11998;55.788;37.572;2022-12-07T01:16:44;5.30;;;3.08;;
23642;SDS011;11998;55.788;37.572;2022-12-07T01:17:44;6.03;;;3.03;;
23642;SDS011;11998;55.788;37.572;2022-12-07T01:18:46;5.67;;;2.93;;
23642;SDS011;11998;55.788;37.572;2022-12-07T01:19:48;4.95;;;2.75;;
23642;SDS011;11998;55.788;37.572;2022-12-07T01:22:21;7.43;;;3.28;;
23642;SDS011;11998;55.788;37.572;2022-12-07T01:23:22;4.33;;;2.67;;
23642;SDS011;11998;55.788;37.572;2022-12-07T01:24:22;9.10;;;3.97;;
23642;SDS011;11998;55.788;37.572;2022-12-07T01:25:23;5.03;;;2.80;;
23642;SDS011;11998;55.788;37.572;2022-12-07T01:26:23;6.57;;;2.83;;
23642;SDS011;11998;55.788;37.572;2022-12-07T01:27:25;5.88;;;4.03;;
23642;SDS011;11998;55.788;37.572;2022-12-07T01:28:25;4.83;;;2.80;;
23642;SDS011;11998;55.788;37.572;2022-12-07T01:29:27;5.95;;;3.10;;
23642;SDS011;11998;55.788;37.572;2022-12-07T01:30:27;4.93;;;3.13;;
23642;SDS011;11998;55.788;37.572;2022-12-07T01:31:28;4.90;;;3.20;;
23642;SDS011;11998;55.788;37.572;2022-12-07T01:32:29;5.82;;;3.38;;
23642;SDS011;11998;55.788;37.572;2022-12-07T01:33:31;6.67;;;3.57;;
23642;SDS011;11998;55.788;37.572;2022-12-07T01:34:33;5.47;;;3.17;;
23642;SDS011;11998;55.788;37.572;2022-12-07T01:35:34;5.90;;;3.10;;
23642;SDS011;11998;55.788;37.572;2022-12-07T01:36:35;5.90;;;3.33;;
23642;SDS011;11998;55.788;37.572;2022-12-07T01:37:37;4.03;;;3.08;;
23642;SDS011;11998;55.788;37.572;2022-12-07T01:38:38;7.25;;;3.30;;
23642;SDS011;11998;55.788;37.572;2022-12-07T01:39:39;6.80;;;3.10;;
23642;SDS011;11998;55.788;37.572;2022-12-07T01:40:41;7.15;;;3.30;;
23642;SDS011;11998;55.788;37.572;2022-12-07T01:41:41;6.00;;;3.80;;
23642;SDS011;11998;55.788;37.572;2022-12-07T01:42:43;6.88;;;3.55;;
23642;SDS011;11998;55.788;37.572;2022-12-07T01:46:18;5.07;;;3.05;;
23642;SDS011;11998;55.788;37.572;2022-12-07T01:47:19;6.57;;;3.27;;
23642;SDS011;11998;55.788;37.572;2022-12-07T01:48:41;8.00;;;3.53;;
23642;SDS011;11998;55.788;37.572;2022-12-07T01:49:42;6.75;;;3.03;;
23642;SDS011;11998;55.788;37.572;2022-12-07T01:50:46;8.20;;;2.97;;
23642;SDS011;11998;55.788;37.572;2022-12-07T01:51:51;5.78;;;3.10;;
23642;SDS011;11998;55.788;37.572;2022-12-07T01:52:55;6.63;;;3.45;;
23642;SDS011;11998;55.788;37.572;2022-12-07T01:53:58;5.53;;;3.70;;
23642;SDS011;11998;55.788;37.572;2022-12-07T01:55:00;4.50;;;2.80;;
23642;SDS011;11998;55.788;37.572;2022-12-07T01:56:04;4.80;;;2.80;;
23642;SDS011;11998;55.788;37.572;2022-12-07T01:57:07;5.03;;;2.97;;
23642;SDS011;11998;55.788;37.572;2022-12-07T01:58:09;5.25;;;3.40;;
23642;SDS011;11998;55.788;37.572;2022-12-07T01:59:12;6.68;;;3.15;;
23642;SDS011;11998;55.788;37.572;2022-12-07T02:00:13;6.28;;;3.10;;
23642;SDS011;11998;55.788;37.572;2022-12-07T02:01:14;6.35;;;2.80;;
23642;SDS011;11998;55.788;37.572;2022-12-07T02:02:19;5.77;;;3.33;;
23642;SDS011;11998;55.788;37.572;2022-12-07T02:03:27;5.65;;;3.08;;
23642;SDS011;11998;55.788;37.572;2022-12-07T02:04:32;7.68;;;3.40;;
23642;SDS011;11998;55.788;37.572;2022-12-07T02:05:34;6.25;;;3.65;;
23642;SDS011;11998;55.788;37.572;2022-12-07T02:06:37;6.57;;;3.33;;
23642;SDS011;11998;55.788;37.572;2022-12-07T02:07:38;6.77;;;3.40;;
23642;SDS011;11998;55.788;37.572;2022-12-07T02:08:39;5.93;;;2.95;;
23642;SDS011;11998;55.788;37.572;2022-12-07T02:09:40;5.45;;;3.55;;
23642;SDS011;11998;55.788;37.572;2022-12-07T02:10:40;5.63;;;3.23;;
23642;SDS011;11998;55.788;37.572;2022-12-07T02:11:41;5.80;;;3.13;;
23642;SDS011;11998;55.788;37.572;2022-12-07T02:12:42;7.53;;;3.33;;
23642;SDS011;11998;55.788;37.572;2022-12-07T02:13:47;6.07;;;2.78;;
23642;SDS011;11998;55.788;37.572;2022-12-07T02:14:48;4.88;;;3.10;;
23642;SDS011;11998;55.788;37.572;2022-12-07T02:21:34;5.55;;;3.10;;
23642;SDS011;11998;55.788;37.572;2022-12-07T02:23:00;4.18;;;2.90;;
23642;SDS011;11998;55.788;37.572;2022-12-07T02:28:25;8.50;;;3.30;;
23642;SDS011;11998;55.788;37.572;2022-12-07T02:29:33;5.00;;;3.30;;
23642;SDS011;11998;55.788;37.572;2022-12-07T02:30:40;4.28;;;2.97;;
23642;SDS011;11998;55.788;37.572;2022-12-07T02:33:40;7.03;;;3.28;;
23642;SDS011;11998;55.788;37.572;2022-12-07T02:34:50;5.75;;;3.15;;
23642;SDS011;11998;55.788;37.572;2022-12-07T02:36:59;7.87;;;3.23;;
23642;SDS011;11998;55.788;37.572;2022-12-07T02:38:16;5.30;;;3.22;;
23642;SDS011;11998;55.788;37.572;2022-12-07T02:39:20;5.25;;;2.75;;
23642;SDS011;11998;55.788;37.572;2022-12-07T02:42:12;6.75;;;3.20;;
23642;SDS011;11998;55.788;37.572;2022-12-07T02:43:19;7.40;;;3.25;;
23642;SDS011;11998;55.788;37.572;2022-12-07T02:44:24;6.95;;;3.60;;
23642;SDS011;11998;55.788;37.572;2022-12-07T02:45:28;8.30;;;3.60;;
23642;SDS011;11998;55.788;37.572;2022-12-07T02:46:38;7.40;;;3.45;;
23642;SDS011;11998;55.788;37.572;2022-12-07T02:47:42;6.47;;;3.53;;
23642;SDS011;11998;55.788;37.572;2022-12-07T02:48:44;5.90;;;3.58;;
23642;SDS011;11998;55.788;37.572;2022-12-07T02:49:46;7.35;;;3.17;;
23642;SDS011;11998;55.788;37.572;2022-12-07T02:50:50;8.90;;;3.42;;
23642;SDS011;11998;55.788;37.572;2022-12-07T02:51:53;6.47;;;3.78;;
23642;SDS011;11998;55.788;37.572;2022-12-07T02:52:53;6.80;;;3.57;;
23642;SDS011;11998;55.788;37.572;2022-12-07T02:53:54;8.50;;;4.30;;
23642;SDS011;11998;55.788;37.572;2022-12-07T02:54:54;8.93;;;4.10;;
23642;SDS011;11998;55.788;37.572;2022-12-07T02:55:55;11.97;;;3.87;;
23642;SDS011;11998;55.788;37.572;2022-12-07T02:56:59;7.70;;;3.47;;
23642;SDS011;11998;55.788;37.572;2022-12-07T02:58:25;6.80;;;3.58;;
23642;SDS011;11998;55.788;37.572;2022-12-07T03:00:58;6.03;;;3.70;;
23642;SDS011;11998;55.788;37.572;2022-12-07T03:02:20;9.00;;;3.97;;
23642;SDS011;11998;55.788;37.572;2022-12-07T03:03:46;6.32;;;3.40;;
23642;SDS011;11998;55.788;37.572;2022-12-07T03:07:27;6.90;;;3.65;;
23642;SDS011;11998;55.788;37.572;2022-12-07T03:09:46;6.60;;;4.00;;
23642;SDS011;11998;55.788;37.572;2022-12-07T03:11:17;11.43;;;4.05;;
23642;SDS011;11998;55.788;37.572;2022-12-07T03:12:42;6.07;;;3.55;;
23642;SDS011;11998;55.788;37.572;2022-12-07T03:13:59;8.95;;;4.50;;
23642;SDS011;11998;55.788;37.572;2022-12-07T03:16:27;8.95;;;3.85;;
23642;SDS011;11998;55.788;37.572;2022-12-07T03:17:31;11.98;;;4.18;;
23642;SDS011;11998;55.788;37.572;2022-12-07T03:18:37;7.93;;;4.00;;
23642;SDS011;11998;55.788;37.572;2022-12-07T03:19:41;7.57;;;3.63;;
23642;SDS011;11998;55.788;37.572;2022-12-07T03:20:44;6.95;;;3.80;;
23642;SDS011;11998;55.788;37.572;2022-12-07T03:21:55;10.25;;;4.40;;
23642;SDS011;11998;55.788;37.572;2022-12-07T03:23:05;9.30;;;4.15;;
23642;SDS011;11998;55.788;37.572;2022-12-07T03:24:12;7.45;;;4.00;;
23642;SDS011;11998;55.788;37.572;2022-12-07T03:25:16;7.47;;;3.85;;
23642;SDS011;11998;55.788;37.572;2022-12-07T03:26:17;7.90;;;4.05;;
23642;SDS011;11998;55.788;37.572;2022-12-07T03:27:34;10.30;;;4.10;;
23642;SDS011;11998;55.788;37.572;2022-12-07T03:29:45;8.18;;;3.95;;
23642;SDS011;11998;55.788;37.572;2022-12-07T03:32:03;10.43;;;3.88;;
23642;SDS011;11998;55.788;37.572;2022-12-07T03:33:10;6.70;;;4.10;;
23642;SDS011;11998;55.788;37.572;2022-12-07T03:35:37;7.55;;;4.30;;
23642;SDS011;11998;55.788;37.572;2022-12-07T03:36:45;7.55;;;3.88;;
23642;SDS011;11998;55.788;37.572;2022-12-07T03:37:54;9.15;;;4.35;;
23642;SDS011;11998;55.788;37.572;2022-12-07T03:38:59;11.35;;;4.32;;
23642;SDS011;11998;55.788;37.572;2022-12-07T03:41:18;8.18;;;4.28;;
23642;SDS011;11998;55.788;37.572;2022-12-07T03:42:26;11.15;;;4.72;;
23642;SDS011;11998;55.788;37.572;2022-12-07T03:43:28;9.63;;;5.00;;
23642;SDS011;11998;55.788;37.572;2022-12-07T03:44:30;8.63;;;4.15;;
23642;SDS011;11998;55.788;37.572;2022-12-07T03:47:56;8.82;;;4.10;;
23642;SDS011;11998;55.788;37.572;2022-12-07T03:49:11;7.22;;;3.80;;
23642;SDS011;11998;55.788;37.572;2022-12-07T03:50:28;8.70;;;4.22;;
23642;SDS011;11998;55.788;37.572;2022-12-07T03:53:11;7.85;;;3.45;;
23642;SDS011;11998;55.788;37.572;2022-12-07T03:55:27;9.00;;;3.85;;
23642;SDS011;11998;55.788;37.572;2022-12-07T03:56:31;8.65;;;4.13;;
23642;SDS011;11998;55.788;37.572;2022-12-07T03:57:33;8.10;;;3.67;;
23642;SDS011;11998;55.788;37.572;2022-12-07T03:58:35;8.27;;;4.10;;
23642;SDS011;11998;55.788;37.572;2022-12-07T03:59:37;7.15;;;4.40;;
23642;SDS011;11998;55.788;37.572;2022-12-07T04:00:38;7.80;;;4.30;;
23642;SDS011;11998;55.788;37.572;2022-12-07T04:01:42;7.85;;;4.00;;
23642;SDS011;11998;55.788;37.572;2022-12-07T04:02:43;8.40;;;4.30;;
23642;SDS011;11998;55.788;37.572;2022-12-07T04:03:44;7.17;;;4.00;;
23642;SDS011;11998;55.788;37.572;2022-12-07T04:04:45;6.87;;;3.50;;
23642;SDS011;11998;55.788;37.572;2022-12-07T04:05:45;7.30;;;3.60;;
23642;SDS011;11998;55.788;37.572;2022-12-07T04:06:46;7.07;;;3.90;;
23642;SDS011;11998;55.788;37.572;2022-12-07T04:07:46;7.03;;;3.97;;
23642;SDS011;11998;55.788;37.572;2022-12-07T04:08:47;7.57;;;3.80;;
23642;SDS011;11998;55.788;37.572;2022-12-07T04:09:48;8.33;;;4.50;;
23642;SDS011;11998;55.788;37.572;2022-12-07T04:10:48;9.50;;;3.57;;
23642;SDS011;11998;55.788;37.572;2022-12-07T04:11:49;6.33;;;3.33;;
23642;SDS011;11998;55.788;37.572;2022-12-07T04:12:49;7.53;;;3.87;;
23642;SDS011;11998;55.788;37.572;2022-12-07T04:13:50;7.40;;;3.93;;
23642;SDS011;11998;55.788;37.572;2022-12-07T04:15:09;6.80;;;3.75;;
23642;SDS011;11998;55.788;37.572;2022-12-07T04:16:10;9.23;;;4.00;;
23642;SDS011;11998;55.788;37.572;2022-12-07T04:17:11;8.40;;;4.27;;
23642;SDS011;11998;55.788;37.572;2022-12-07T04:18:11;11.30;;;4.07;;
23642;SDS011;11998;55.788;37.572;2022-12-07T04:19:12;5.67;;;3.70;;
23642;SDS011;11998;55.788;37.572;2022-12-07T04:20:12;13.43;;;4.17;;
23642;SDS011;11998;55.788;37.572;2022-12-07T04:21:13;7.53;;;3.83;;
23642;SDS011;11998;55.788;37.572;2022-12-07T04:22:13;6.37;;;3.70;;
23642;SDS011;11998;55.788;37.572;2022-12-07T04:23:14;6.63;;;4.30;;
23642;SDS011;11998;55.788;37.572;2022-12-07T04:24:15;7.80;;;3.60;;
23642;SDS011;11998;55.788;37.572;2022-12-07T04:25:16;8.90;;;4.43;;
23642;SDS011;11998;55.788;37.572;2022-12-07T04:26:16;7.40;;;3.87;;
23642;SDS011;11998;55.788;37.572;2022-12-07T04:27:17;9.73;;;3.87;;
23642;SDS011;11998;55.788;37.572;2022-12-07T04:28:17;7.73;;;3.77;;
23642;SDS011;11998;55.788;37.572;2022-12-07T04:29:18;6.07;;;3.90;;
23642;SDS011;11998;55.788;37.572;2022-12-07T04:30:19;6.13;;;3.93;;
23642;SDS011;11998;55.788;37.572;2022-12-07T04:31:19;7.20;;;4.20;;
23642;SDS011;11998;55.788;37.572;2022-12-07T04:32:20;8.50;;;3.93;;
23642;SDS011;11998;55.788;37.572;2022-12-07T04:33:20;6.50;;;3.83;;
23642;SDS011;11998;55.788;37.572;2022-12-07T04:34:21;9.10;;;4.30;;
23642;SDS011;11998;55.788;37.572;2022-12-07T04:35:22;8.00;;;3.93;;
23642;SDS011;11998;55.788;37.572;2022-12-07T04:36:22;8.63;;;4.23;;
23642;SDS011;11998;55.788;37.572;2022-12-07T04:37:23;9.63;;;4.03;;
23642;SDS011;11998;55.788;37.572;2022-12-07T04:38:24;11.75;;;4.40;;
23642;SDS011;11998;55.788;37.572;2022-12-07T04:39:25;7.47;;;4.20;;
23642;SDS011;11998;55.788;37.572;2022-12-07T04:40:27;7.18;;;4.57;;
23642;SDS011;11998;55.788;37.572;2022-12-07T04:41:28;9.63;;;4.80;;
23642;SDS011;11998;55.788;37.572;2022-12-07T04:42:28;8.77;;;4.47;;
23642;SDS011;11998;55.788;37.572;2022-12-07T04:43:29;9.50;;;4.80;;
23642;SDS011;11998;55.788;37.572;2022-12-07T04:44:29;8.80;;;5.00;;
23642;SDS011;11998;55.788;37.572;2022-12-07T04:45:30;10.60;;;4.50;;
23642;SDS011;11998;55.788;37.572;2022-12-07T04:46:31;9.53;;;5.23;;
23642;SDS011;11998;55.788;37.572;2022-12-07T04:47:31;11.03;;;5.87;;
23642;SDS011;11998;55.788;37.572;2022-12-07T04:48:32;11.33;;;4.37;;
23642;SDS011;11998;55.788;37.572;2022-12-07T04:49:33;11.53;;;4.40;;
23642;SDS011;11998;55.788;37.572;2022-12-07T04:50:34;9.50;;;4.27;;
23642;SDS011;11998;55.788;37.572;2022-12-07T04:51:35;8.23;;;4.65;;
23642;SDS011;11998;55.788;37.572;2022-12-07T04:52:36;16.73;;;5.07;;
23642;SDS011;11998;55.788;37.572;2022-12-07T04:53:36;9.47;;;4.87;;
23642;SDS011;11998;55.788;37.572;2022-12-07T04:54:37;13.57;;;4.60;;
23642;SDS011;11998;55.788;37.572;2022-12-07T04:55:37;8.67;;;4.77;;
23642;SDS011;11998;55.788;37.572;2022-12-07T04:56:38;17.70;;;5.47;;
23642;SDS011;11998;55.788;37.572;2022-12-07T04:57:39;7.35;;;4.60;;
23642;SDS011;11998;55.788;37.572;2022-12-07T04:58:39;9.37;;;4.70;;
23642;SDS011;11998;55.788;37.572;2022-12-07T04:59:40;8.17;;;4.50;;
23642;SDS011;11998;55.788;37.572;2022-12-07T05:00:40;8.23;;;4.97;;
23642;SDS011;11998;55.788;37.572;2022-12-07T05:01:41;12.80;;;5.27;;
23642;SDS011;11998;55.788;37.572;2022-12-07T05:02:42;8.50;;;4.90;;
23642;SDS011;11998;55.788;37.572;2022-12-07T05:03:42;8.60;;;5.07;;
23642;SDS011;11998;55.788;37.572;2022-12-07T05:04:43;8.47;;;4.20;;
23642;SDS011;11998;55.788;37.572;2022-12-07T05:05:43;8.50;;;4.50;;
23642;SDS011;11998;55.788;37.572;2022-12-07T05:06:44;8.17;;;4.27;;
23642;SDS011;11998;55.788;37.572;2022-12-07T05:07:44;9.67;;;4.70;;
23642;SDS011;11998;55.788;37.572;2022-12-07T05:08:45;10.13;;;4.83;;
23642;SDS011;11998;55.788;37.572;2022-12-07T05:09:46;9.38;;;5.07;;
23642;SDS011;11998;55.788;37.572;2022-12-07T05:10:48;8.93;;;4.17;;
23642;SDS011;11998;55.788;37.572;2022-12-07T05:11:49;11.13;;;4.72;;
23642;SDS011;11998;55.788;37.572;2022-12-07T05:12:49;7.67;;;4.30;;
23642;SDS011;11998;55.788;37.572;2022-12-07T05:13:50;9.83;;;4.60;;
23642;SDS011;11998;55.788;37.572;2022-12-07T05:14:50;8.63;;;4.53;;
23642;SDS011;11998;55.788;37.572;2022-12-07T05:15:51;9.43;;;4.90;;
23642;SDS011;11998;55.788;37.572;2022-12-07T05:16:51;9.50;;;5.13;;
23642;SDS011;11998;55.788;37.572;2022-12-07T05:17:53;10.18;;;4.63;;
23642;SDS011;11998;55.788;37.572;2022-12-07T05:18:54;10.13;;;4.90;;
23642;SDS011;11998;55.788;37.572;2022-12-07T05:19:55;11.85;;;5.07;;
23642;SDS011;11998;55.788;37.572;2022-12-07T05:20:55;12.73;;;4.43;;
23642;SDS011;11998;55.788;37.572;2022-12-07T05:21:56;10.03;;;4.73;;
23642;SDS011;11998;55.788;37.572;2022-12-07T05:22:57;10.60;;;5.07;;
23642;SDS011;11998;55.788;37.572;2022-12-07T05:23:58;9.88;;;5.05;;
23642;SDS011;11998;55.788;37.572;2022-12-07T05:24:59;10.03;;;4.90;;
23642;SDS011;11998;55.788;37.572;2022-12-07T05:25:59;10.47;;;4.27;;
23642;SDS011;11998;55.788;37.572;2022-12-07T05:27:00;12.13;;;5.57;;
23642;SDS011;11998;55.788;37.572;2022-12-07T05:28:00;10.40;;;4.80;;
23642;SDS011;11998;55.788;37.572;2022-12-07T05:29:01;14.10;;;4.80;;
23642;SDS011;11998;55.788;37.572;2022-12-07T05:30:01;11.67;;;5.30;;
23642;SDS011;11998;55.788;37.572;2022-12-07T05:31:03;11.18;;;5.32;;
23642;SDS011;11998;55.788;37.572;2022-12-07T05:32:03;10.10;;;5.10;;
23642;SDS011;11998;55.788;37.572;2022-12-07T05:33:04;9.87;;;5.33;;
23642;SDS011;11998;55.788;37.572;2022-12-07T05:34:05;9.73;;;5.20;;
23642;SDS011;11998;55.788;37.572;2022-12-07T05:35:05;8.87;;;4.67;;
23642;SDS011;11998;55.788;37.572;2022-12-07T05:36:06;11.93;;;5.27;;
23642;SDS011;11998;55.788;37.572;2022-12-07T05:37:07;8.03;;;4.60;;
23642;SDS011;11998;55.788;37.572;2022-12-07T05:38:07;10.50;;;5.47;;
23642;SDS011;11998;55.788;37.572;2022-12-07T05:39:08;17.63;;;5.57;;
23642;SDS011;11998;55.788;37.572;2022-12-07T05:40:09;11.33;;;5.17;;
23642;SDS011;11998;55.788;37.572;2022-12-07T05:41:11;13.18;;;4.97;;
23642;SDS011;11998;55.788;37.572;2022-12-07T05:42:34;13.15;;;6.00;;
23642;SDS011;11998;55.788;37.572;2022-12-07T05:43:34;18.60;;;5.87;;
23642;SDS011;11998;55.788;37.572;2022-12-07T05:44:35;11.40;;;5.07;;
23642;SDS011;11998;55.788;37.572;2022-12-07T05:45:35;11.47;;;5.53;;
23642;SDS011;11998;55.788;37.572;2022-12-07T05:46:36;10.83;;;5.43;;
23642;SDS011;11998;55.788;37.572;2022-12-07T05:47:37;10.95;;;5.10;;
23642;SDS011;11998;55.788;37.572;2022-12-07T05:48:38;13.03;;;5.77;;
23642;SDS011;11998;55.788;37.572;2022-12-07T05:49:38;10.80;;;5.13;;
23642;SDS011;11998;55.788;37.572;2022-12-07T05:50:39;10.23;;;5.40;;
23642;SDS011;11998;55.788;37.572;2022-12-07T05:51:39;11.37;;;6.00;;
23642;SDS011;11998;55.788;37.572;2022-12-07T05:52:40;12.80;;;5.53;;
23642;SDS011;11998;55.788;37.572;2022-12-07T05:53:40;10.87;;;5.60;;
23642;SDS011;11998;55.788;37.572;2022-12-07T05:54:41;11.40;;;5.53;;
23642;SDS011;11998;55.788;37.572;2022-12-07T05:55:41;15.00;;;6.07;;
23642;SDS011;11998;55.788;37.572;2022-12-07T05:56:42;11.50;;;5.90;;
23642;SDS011;11998;55.788;37.572;2022-12-07T05:57:42;11.33;;;5.60;;
23642;SDS011;11998;55.788;37.572;2022-12-07T05:59:03;12.45;;;6.22;;
23642;SDS011;11998;55.788;37.572;2022-12-07T06:00:22;11.52;;;5.70;;
23642;SDS011;11998;55.788;37.572;2022-12-07T06:01:22;12.33;;;5.93;;
23642;SDS011;11998;55.788;37.572;2022-12-07T06:02:23;11.53;;;6.07;;
23642;SDS011;11998;55.788;37.572;2022-12-07T06:03:23;14.10;;;6.63;;
23642;SDS011;11998;55.788;37.572;2022-12-07T06:04:25;13.07;;;6.00;;
23642;SDS011;11998;55.788;37.572;2022-12-07T06:05:28;10.50;;;5.95;;
23642;SDS011;11998;55.788;37.572;2022-12-07T06:06:28;12.63;;;5.80;;
23642;SDS011;11998;55.788;37.572;2022-12-07T06:07:29;14.07;;;5.93;;
23642;SDS011;11998;55.788;37.572;2022-12-07T06:08:29;13.40;;;6.40;;
23642;SDS011;11998;55.788;37.572;2022-12-07T06:09:29;11.93;;;6.17;;
23642;SDS011;11998;55.788;37.572;2022-12-07T06:10:30;10.73;;;5.77;;
23642;SDS011;11998;55.788;37.572;2022-12-07T06:11:31;13.83;;;7.10;;
23642;SDS011;11998;55.788;37.572;2022-12-07T06:14:28;13.60;;;6.13;;
23642;SDS011;11998;55.788;37.572;2022-12-07T06:15:28;13.23;;;6.03;;
23642;SDS011;11998;55.788;37.572;2022-12-07T06:16:29;15.17;;;6.87;;
23642;SDS011;11998;55.788;37.572;2022-12-07T06:17:29;14.73;;;7.13;;
23642;SDS011;11998;55.788;37.572;2022-12-07T06:18:30;11.87;;;6.43;;
23642;SDS011;11998;55.788;37.572;2022-12-07T06:19:30;16.80;;;6.93;;
23642;SDS011;11998;55.788;37.572;2022-12-07T06:20:31;14.77;;;7.00;;
23642;SDS011;11998;55.788;37.572;2022-12-07T06:21:31;11.00;;;5.70;;
23642;SDS011;11998;55.788;37.572;2022-12-07T06:22:32;12.87;;;6.37;;
23642;SDS011;11998;55.788;37.572;2022-12-07T06:23:32;10.57;;;6.13;;
23642;SDS011;11998;55.788;37.572;2022-12-07T06:24:33;17.63;;;7.17;;
23642;SDS011;11998;55.788;37.572;2022-12-07T06:25:33;10.53;;;6.03;;
23642;SDS011;11998;55.788;37.572;2022-12-07T06:26:34;14.03;;;6.67;;
23642;SDS011;11998;55.788;37.572;2022-12-07T06:27:35;13.57;;;6.77;;
23642;SDS011;11998;55.788;37.572;2022-12-07T06:28:35;11.43;;;6.70;;
23642;SDS011;11998;55.788;37.572;2022-12-07T06:29:36;14.50;;;6.93;;
23642;SDS011;11998;55.788;37.572;2022-12-07T06:30:36;15.10;;;6.20;;
23642;SDS011;11998;55.788;37.572;2022-12-07T06:31:37;10.40;;;6.00;;
23642;SDS011;11998;55.788;37.572;2022-12-07T06:32:38;12.35;;;6.55;;
23642;SDS011;11998;55.788;37.572;2022-12-07T06:33:38;10.80;;;5.90;;
23642;SDS011;11998;55.788;37.572;2022-12-07T06:34:39;15.97;;;7.20;;
23642;SDS011;11998;55.788;37.572;2022-12-07T06:35:39;14.70;;;6.77;;
23642;SDS011;11998;55.788;37.572;2022-12-07T06:36:40;11.93;;;6.30;;
23642;SDS011;11998;55.788;37.572;2022-12-07T06:37:41;11.93;;;6.33;;
23642;SDS011;11998;55.788;37.572;2022-12-07T06:38:41;17.83;;;6.43;;
23642;SDS011;11998;55.788;37.572;2022-12-07T06:39:42;13.33;;;6.77;;
23642;SDS011;11998;55.788;37.572;2022-12-07T06:40:42;13.27;;;6.60;;
23642;SDS011;11998;55.788;37.572;2022-12-07T06:41:43;19.80;;;6.53;;
23642;SDS011;11998;55.788;37.572;2022-12-07T06:42:43;10.60;;;6.57;;
23642;SDS011;11998;55.788;37.572;2022-12-07T06:43:44;12.50;;;6.63;;
23642;SDS011;11998;55.788;37.572;2022-12-07T06:44:44;11.50;;;6.27;;
23642;SDS011;11998;55.788;37.572;2022-12-07T06:45:45;10.40;;;6.00;;
23642;SDS011;11998;55.788;37.572;2022-12-07T06:46:45;13.10;;;6.27;;